Saturday, May 26, 2018, 8:13 AM EDT

KFYJ, West Point, Middle Peninsula Regional Airport

Location: Shacklefords, VA, United States Lat: 37.521
Local Time: 8:13 AM EDT (12:13 GMT) Lon: -76.764
Time Zone: US/Eastern Elev: 22 ft

Show me the last for .
Show Decoded

2018-05-26 07:55 METAR KFYJ 261155Z AUTO 20005KT 10SM CLR 24/21 A2995 RMK AO1 T02360205 10236
                 20215 =
2018-05-26 07:35 METAR KFYJ 261135Z AUTO 21005KT 10SM CLR 23/20 A2996 RMK AO1 T02320204 =
2018-05-26 07:15 METAR KFYJ 261115Z AUTO 20005KT 10SM CLR 23/20 A2995 RMK AO1 T02260202 =
2018-05-26 06:55 METAR KFYJ 261055Z AUTO 20005KT 10SM CLR 22/20 A2995 RMK AO1 T02210202 =
2018-05-26 06:35 METAR KFYJ 261035Z AUTO 20005KT 10SM CLR 22/20 A2995 RMK AO1 T02180201 =
2018-05-26 06:15 METAR KFYJ 261015Z AUTO 20004KT 10SM CLR 22/20 A2995 RMK AO1 T02150200 =
2018-05-26 05:55 METAR KFYJ 260955Z AUTO 20005KT 10SM CLR 22/20 A2995 RMK AO1 T02150200 =
2018-05-26 05:35 METAR KFYJ 260935Z AUTO 21005KT 10SM CLR 22/20 A2994 RMK AO1 T02170201 =
2018-05-26 05:15 METAR KFYJ 260915Z AUTO 21004KT 10SM CLR 22/20 A2994 RMK AO1 T02180201 =
2018-05-26 04:55 METAR KFYJ 260855Z AUTO 22004KT 10SM CLR 22/20 A2994 RMK AO1 T02190201 =
2018-05-26 04:35 METAR KFYJ 260835Z AUTO 21004KT 10SM CLR 22/20 A2994 RMK AO1 T02200200 =
2018-05-26 04:15 METAR KFYJ 260815Z AUTO 20004KT 10SM CLR 22/20 A2994 RMK AO1 T02210200 =
2018-05-26 03:55 METAR KFYJ 260755Z AUTO 20006KT 10SM CLR 22/20 A2994 RMK AO1 T02230200 =
2018-05-26 03:35 METAR KFYJ 260735Z AUTO 21006KT 10SM CLR 22/20 A2994 RMK AO1 T02240200 =
2018-05-26 03:15 METAR KFYJ 260715Z AUTO 21006KT 10SM CLR 23/20 A2994 RMK AO1 T02250198 =
2018-05-26 02:55 METAR KFYJ 260655Z AUTO 21005KT 10SM CLR 23/20 A2995 RMK AO1 T02260199 =
2018-05-26 02:35 METAR KFYJ 260635Z AUTO 22005KT 10SM CLR 23/20 A2995 RMK AO1 T02250198 =
2018-05-26 02:15 METAR KFYJ 260615Z AUTO 21004KT 10SM CLR 23/20 A2995 RMK AO1 T02250196 =
2018-05-26 01:55 METAR KFYJ 260555Z AUTO 21005KT 10SM CLR 23/20 A2996 RMK AO1 T02260196 10265
                 20221 402920149 =
2018-05-26 01:35 METAR KFYJ 260535Z AUTO 20005KT 10SM CLR 23/20 A2996 RMK AO1 T02270196 =
2018-05-26 01:15 METAR KFYJ 260515Z AUTO 19005KT 10SM CLR 23/20 A2996 RMK AO1 T02270195 =
2018-05-26 00:55 METAR KFYJ 260455Z AUTO 19005KT 10SM CLR 23/19 A2997 RMK AO1 T02290193 =
2018-05-26 00:35 METAR KFYJ 260435Z AUTO 20004KT 10SM CLR 23/19 A2997 RMK AO1 T02300190 =
2018-05-26 00:15 METAR KFYJ 260415Z AUTO 18003KT 10SM CLR 23/19 A2997 RMK AO1 T02300185 =
2018-05-25 23:55 METAR KFYJ 260355Z AUTO 16004KT 10SM CLR 23/19 A2997 RMK AO1 T02260186 =
2018-05-25 23:35 METAR KFYJ 260335Z AUTO 15003KT 10SM CLR 23/19 A2997 RMK AO1 T02270186 =
2018-05-25 23:15 METAR KFYJ 260315Z AUTO 00000KT 10SM CLR 24/19 A2997 RMK AO1 T02360185 =
2018-05-25 22:55 METAR KFYJ 260255Z AUTO 00000KT 10SM CLR 24/19 A2997 RMK AO1 T02350185 =
2018-05-25 22:35 METAR KFYJ 260235Z AUTO 00000KT 10SM CLR 24/19 A2997 RMK AO1 T02360185 =
2018-05-25 22:15 METAR KFYJ 260215Z AUTO 00000KT 10SM CLR 24/19 A2997 RMK AO1 T02400185 =
2018-05-25 21:55 METAR KFYJ 260155Z AUTO 18003KT 10SM CLR 24/19 A2997 RMK AO1 T02420185 =
2018-05-25 21:35 METAR KFYJ 260135Z AUTO 17003KT 10SM CLR 25/19 A2997 RMK AO1 T02450185 =
2018-05-25 21:15 METAR KFYJ 260115Z AUTO 16004KT 10SM CLR 25/19 A2996 RMK AO1 T02460185 =
2018-05-25 20:55 METAR KFYJ 260055Z AUTO 17004KT 10SM CLR 25/18 A2996 RMK AO1 T02500184 =
2018-05-25 20:35 METAR KFYJ 260035Z AUTO 17004KT 10SM CLR 25/18 A2996 RMK AO1 T02540182 =
2018-05-25 20:15 METAR KFYJ 260015Z AUTO 18003KT 10SM CLR 26/18 A2996 RMK AO1 T02600180 =
2018-05-25 19:55 METAR KFYJ 252355Z AUTO 17003KT 10SM CLR 27/18 A2996 RMK AO1 T02650180 10292
                 20265 =
2018-05-25 19:35 METAR KFYJ 252335Z AUTO 20003KT 10SM CLR 27/18 A2996 RMK AO1 T02730176 =
2018-05-25 19:15 METAR KFYJ 252315Z AUTO 20005KT 10SM CLR 28/17 A2996 RMK AO1 T02760171 =
2018-05-25 18:55 METAR KFYJ 252255Z AUTO 21006KT 10SM CLR 28/17 A2997 RMK AO1 T02800168 =
2018-05-25 18:35 METAR KFYJ 252235Z AUTO 20006KT 10SM CLR 28/17 A2997 RMK AO1 T02830168 =
2018-05-25 18:15 METAR KFYJ 252215Z AUTO 20006KT 10SM CLR 29/17 A2997 RMK AO1 T02870166 =
2018-05-25 17:55 METAR KFYJ 252155Z AUTO 20005KT 10SM CLR 29/17 A2997 RMK AO1 T02870167 =
2018-05-25 17:35 METAR KFYJ 252135Z AUTO 20008KT 10SM CLR 29/16 A2998 RMK AO1 T02870157 =
2018-05-25 17:15 METAR KFYJ 252115Z AUTO 21007KT 10SM SCT055 29/17 A2998 RMK AO1 T02900165 =
2018-05-25 16:55 METAR KFYJ 252055Z AUTO 19007KT 10SM BKN055 29/16 A2999 RMK AO1 T02880162 =
2018-05-25 16:35 METAR KFYJ 252035Z AUTO 20005KT 10SM SCT055 29/17 A2999 RMK AO1 T02880165 =
2018-05-25 16:15 METAR KFYJ 252015Z AUTO 22008KT 10SM SCT055 29/17 A3000 RMK AO1 T02910165 =
2018-05-25 15:55 METAR KFYJ 251955Z AUTO 20006KT 10SM SCT055 29/16 A3001 RMK AO1 T02880157 =
2018-05-25 15:35 METAR KFYJ 251935Z AUTO 21007KT 10SM CLR 29/15 A3001 RMK AO1 T02870153 =
2018-05-25 15:15 METAR KFYJ 251915Z AUTO 19008KT 10SM CLR 29/15 A3002 RMK AO1 T02850149 =
2018-05-25 14:55 METAR KFYJ 251855Z AUTO 19006KT 10SM CLR 29/16 A3003 RMK AO1 T02860157 =
2018-05-25 14:35 METAR KFYJ 251835Z AUTO 19008KT 10SM CLR 28/15 A3004 RMK AO1 T02840154 =
2018-05-25 14:15 METAR KFYJ 251815Z AUTO 20007KT 10SM CLR 28/15 A3005 RMK AO1 T02810150 =
2018-05-25 13:55 METAR KFYJ 251755Z AUTO 19008G14KT 10SM CLR 28/15 A3006 RMK AO1 T02800148 10280
                 20207 =
2018-05-25 13:35 METAR KFYJ 251735Z AUTO 20008G14KT 10SM CLR 28/15 A3007 RMK AO1 T02770147 =
2018-05-25 13:15 METAR KFYJ 251715Z AUTO 18009KT 10SM CLR 28/14 A3008 RMK AO1 T02760141 =
2018-05-25 12:55 METAR KFYJ 251655Z AUTO 17010KT 10SM CLR 27/14 A3008 RMK AO1 T02730140 =
2018-05-25 12:35 METAR KFYJ 251635Z AUTO 17009KT 10SM CLR 27/14 A3009 RMK AO1 T02700136 =
2018-05-25 12:15 METAR KFYJ 251615Z AUTO 18007KT 10SM CLR 27/16 A3010 RMK AO1 T02680155 =
2018-05-25 11:55 METAR KFYJ 251555Z AUTO 18006KT 10SM CLR 27/17 A3011 RMK AO1 T02650169 =
2018-05-25 11:35 METAR KFYJ 251535Z AUTO 20006KT 10SM CLR 26/17 A3012 RMK AO1 T02640171 =
2018-05-25 11:15 METAR KFYJ 251515Z AUTO 20006KT 10SM CLR 26/17 A3012 RMK AO1 T02610170 =
2018-05-25 10:55 METAR KFYJ 251455Z AUTO 21005KT 10SM CLR 26/18 A3013 RMK AO1 T02550176 =
2018-05-25 10:35 METAR KFYJ 251435Z AUTO 18005KT 10SM CLR 25/18 A3013 RMK AO1 T02520177 =
2018-05-25 10:15 METAR KFYJ 251415Z AUTO 20005KT 10SM CLR 25/17 A3013 RMK AO1 T02460174 =
2018-05-25 09:55 METAR KFYJ 251355Z AUTO 19004KT 10SM CLR 24/18 A3014 RMK AO1 T02410176 =
2018-05-25 09:35 METAR KFYJ 251335Z AUTO 20004KT 10SM CLR 24/17 A3014 RMK AO1 T02350173 =
2018-05-25 09:15 METAR KFYJ 251315Z AUTO 19004KT 10SM CLR 23/17 A3015 RMK AO1 T02300166 =
2018-05-25 08:55 METAR KFYJ 251255Z AUTO 00000KT 10SM CLR 22/17 A3015 RMK AO1 T02240171 =
2018-05-25 08:35 METAR KFYJ 251235Z AUTO 16004KT 10SM CLR 22/17 A3015 RMK AO1 T02170167 =
2018-05-25 08:15 METAR KFYJ 251215Z AUTO 19004KT 10SM CLR 21/16 A3014 RMK AO1 T02120163 =

Support USWX by starting your Amazon purchase here.